Time;durP1;ratioP1;P1;durP2;ratioP2;P2;SDS_P1;SDS_P2;PMS_P1;PMS_P2;Temp;Humidity;BMP_temperature;BMP_pressure;BME280_temperature;BME280_humidity;BME280_pressure;Samples;Min_cycle;Max_cycle;Signal;HPM_P1;HPM_P2
2021/04/07 00:01:57;;;;;;;7.20;2.97;;;3.70;99.90;;;;;;5026460;28;20055;-75
2021/04/07 00:04:23;;;;;;;4.35;2.20;;;3.70;99.90;;;;;;5029720;28;20484;-75
2021/04/07 00:06:49;;;;;;;5.50;1.83;;;3.70;99.90;;;;;;5026942;28;20160;-75
2021/04/07 00:09:14;;;;;;;5.57;1.33;;;3.70;99.90;;;;;;5023275;28;20041;-74
2021/04/07 00:11:40;;;;;;;5.32;1.80;;;3.70;99.90;;;;;;5022903;28;20120;-75
2021/04/07 00:14:08;;;;;;;5.32;2.30;;;3.70;99.90;;;;;;5023096;28;20472;-75
2021/04/07 00:16:34;;;;;;;5.90;1.48;;;3.70;99.90;;;;;;5024656;28;20025;-74
2021/04/07 00:19:12;;;;;;;3.95;1.58;;;3.60;99.90;;;;;;5022542;28;20040;-75
2021/04/07 00:21:37;;;;;;;3.17;1.55;;;3.70;99.90;;;;;;5021045;28;20451;-75
2021/04/07 00:24:03;;;;;;;3.17;1.10;;;3.70;99.90;;;;;;5026789;28;20029;-74
2021/04/07 00:26:29;;;;;;;6.53;1.73;;;3.60;99.90;;;;;;5020011;28;21555;-75
2021/04/07 00:28:54;;;;;;;2.83;1.20;;;3.60;99.90;;;;;;5022512;28;20729;-75
2021/04/07 00:31:20;;;;;;;3.33;1.35;;;3.60;99.90;;;;;;5019333;28;20017;-75
2021/04/07 00:33:45;;;;;;;6.93;2.33;;;3.70;99.90;;;;;;5020783;28;20049;-74
2021/04/07 00:36:10;;;;;;;4.05;1.77;;;3.70;99.90;;;;;;5022853;28;20128;-75
2021/04/07 00:38:36;;;;;;;6.38;1.63;;;3.80;99.90;;;;;;5017428;28;20026;-74
2021/04/07 00:41:02;;;;;;;4.88;1.25;;;3.80;99.90;;;;;;5022535;28;20057;-75
2021/04/07 00:43:27;;;;;;;2.90;1.52;;;3.80;99.90;;;;;;5019271;28;20026;-74
2021/04/07 00:45:53;;;;;;;4.88;1.75;;;3.70;99.90;;;;;;5018689;28;20438;-75
2021/04/07 00:48:20;;;;;;;3.03;1.25;;;3.70;99.90;;;;;;5025024;28;20037;-75
2021/04/07 00:50:45;;;;;;;6.82;1.42;;;3.70;99.90;;;;;;5024162;28;20117;-75
2021/04/07 00:53:11;;;;;;;6.60;1.95;;;3.60;99.90;;;;;;5014815;28;20499;-75
2021/04/07 00:55:45;;;;;;;7.57;1.65;;;3.60;99.90;;;;;;5019736;28;20503;-74
2021/04/07 00:58:17;;;;;;;1.50;1.40;;;3.70;99.90;;;;;;5021022;28;20461;-75
2021/04/07 01:00:44;;;;;;;2.50;1.60;;;3.70;99.90;;;;;;5023219;28;20080;-75
2021/04/07 01:03:12;;;;;;;7.05;1.90;;;3.70;99.90;;;;;;5022367;28;20028;-74
2021/04/07 01:05:39;;;;;;;2.60;1.42;;;3.60;99.90;;;;;;5020906;28;20088;-76
2021/04/07 01:08:04;;;;;;;4.35;1.45;;;3.60;99.90;;;;;;5023155;28;20036;-75
2021/04/07 01:10:30;;;;;;;4.40;1.65;;;3.70;99.90;;;;;;5019865;28;20025;-74
2021/04/07 01:12:56;;;;;;;3.47;1.38;;;3.70;99.90;;;;;;5027571;28;20025;-74
2021/04/07 01:15:22;;;;;;;9.15;1.70;;;3.60;99.90;;;;;;5021363;28;20065;-74
2021/04/07 01:17:48;;;;;;;6.30;1.38;;;3.70;99.90;;;;;;5020629;28;20025;-76
2021/04/07 01:20:17;;;;;;;2.55;1.60;;;3.60;99.90;;;;;;5018044;28;20098;-76
2021/04/07 01:22:47;;;;;;;2.28;1.40;;;3.60;99.90;;;;;;5020477;28;20084;-75
2021/04/07 01:25:12;;;;;;;5.05;1.50;;;3.60;99.90;;;;;;5020252;28;20051;-74
2021/04/07 01:27:39;;;;;;;9.65;1.48;;;3.60;99.90;;;;;;5016468;28;20715;-75
2021/04/07 01:30:10;;;;;;;7.55;1.70;;;3.60;99.90;;;;;;5017744;28;20519;-74
2021/04/07 01:32:37;;;;;;;2.28;1.38;;;3.60;99.90;;;;;;5015147;28;20029;-74
2021/04/07 01:35:04;;;;;;;8.25;1.63;;;3.60;99.90;;;;;;5015846;28;20034;-74
2021/04/07 01:37:34;;;;;;;7.22;1.55;;;3.60;99.90;;;;;;5020914;28;20109;-75
2021/04/07 01:40:00;;;;;;;5.78;2.00;;;3.70;99.90;;;;;;5023513;28;20120;-75
2021/04/07 01:42:30;;;;;;;3.65;1.58;;;3.70;99.90;;;;;;5021373;28;20025;-74
2021/04/07 01:45:24;;;;;;;2.45;1.65;;;3.70;99.90;;;;;;5020188;28;20040;-75
2021/04/07 01:47:50;;;;;;;4.20;1.40;;;3.70;99.90;;;;;;5013517;28;20492;-74
2021/04/07 01:50:15;;;;;;;4.22;1.55;;;3.70;99.90;;;;;;5021264;28;20040;-74
2021/04/07 01:52:41;;;;;;;3.17;1.20;;;3.70;99.90;;;;;;5014474;28;20029;-75
2021/04/07 01:55:07;;;;;;;12.05;1.33;;;3.70;99.90;;;;;;5020903;28;20147;-75
2021/04/07 01:57:32;;;;;;;7.03;1.70;;;3.70;99.90;;;;;;5019410;28;20059;-75
2021/04/07 01:59:58;;;;;;;6.55;2.03;;;3.70;99.90;;;;;;5018740;28;20025;-75
2021/04/07 02:02:29;;;;;;;3.17;1.60;;;3.70;99.90;;;;;;5019902;28;20029;-75
2021/04/07 02:04:55;;;;;;;3.88;1.75;;;3.70;99.90;;;;;;5022927;28;20116;-75
2021/04/07 02:07:21;;;;;;;5.13;1.60;;;3.70;99.90;;;;;;5021903;28;20112;-75
2021/04/07 02:09:46;;;;;;;3.45;1.50;;;3.70;99.90;;;;;;5021548;28;20041;-75
2021/04/07 02:12:12;;;;;;;2.90;1.83;;;3.70;99.90;;;;;;5019022;28;20028;-75
2021/04/07 02:14:38;;;;;;;2.92;1.42;;;3.70;99.90;;;;;;5023495;28;20014;-75
2021/04/07 02:17:04;;;;;;;2.45;1.20;;;3.70;99.90;;;;;;5023368;28;20029;-75
2021/04/07 02:19:32;;;;;;;5.22;1.85;;;3.60;99.90;;;;;;5019873;28;20596;-75
2021/04/07 02:22:18;;;;;;;4.38;1.63;;;3.60;99.90;;;;;;5020735;28;20036;-75
2021/04/07 02:24:45;;;;;;;3.25;1.15;;;3.60;99.90;;;;;;5021226;28;20029;-76
2021/04/07 02:27:19;;;;;;;7.53;1.50;;;3.60;99.90;;;;;;5022577;28;20056;-75
2021/04/07 02:29:49;;;;;;;3.38;1.75;;;3.60;99.90;;;;;;5015105;28;20076;-75
2021/04/07 02:32:14;;;;;;;5.18;1.30;;;3.50;99.90;;;;;;5018366;28;20025;-75
2021/04/07 02:34:42;;;;;;;2.92;1.23;;;3.50;99.90;;;;;;5024359;28;20829;-75
2021/04/07 02:37:09;;;;;;;3.63;1.45;;;3.50;99.90;;;;;;5018176;28;20087;-75
2021/04/07 02:39:35;;;;;;;5.63;1.42;;;3.50;99.90;;;;;;5022453;28;20033;-75
2021/04/07 02:42:00;;;;;;;5.72;1.50;;;3.60;99.90;;;;;;5009263;28;20441;-75
2021/04/07 02:44:26;;;;;;;4.03;1.50;;;3.60;99.90;;;;;;5017538;28;20076;-75
2021/04/07 02:46:51;;;;;;;4.18;1.30;;;3.50;99.90;;;;;;5015235;28;20388;-75
2021/04/07 02:49:17;;;;;;;3.08;1.40;;;3.60;99.90;;;;;;5019791;28;20041;-75
2021/04/07 02:51:42;;;;;;;3.83;1.40;;;3.50;99.90;;;;;;5022746;28;20017;-75
2021/04/07 02:54:08;;;;;;;3.88;1.73;;;3.50;99.90;;;;;;5021426;28;20045;-76
2021/04/07 02:56:33;;;;;;;6.93;1.45;;;3.50;99.90;;;;;;5018219;28;20030;-75
2021/04/07 02:59:00;;;;;;;4.25;1.58;;;3.50;99.90;;;;;;5023297;28;20452;-75
2021/04/07 03:01:26;;;;;;;5.10;1.80;;;3.50;99.90;;;;;;5018782;28;20125;-75
2021/04/07 03:03:52;;;;;;;3.42;1.45;;;3.50;99.90;;;;;;5019004;28;20108;-75
2021/04/07 03:06:17;;;;;;;3.97;1.50;;;3.40;99.90;;;;;;5016126;28;20329;-75
2021/04/07 03:08:43;;;;;;;2.85;1.70;;;3.50;99.90;;;;;;5022075;28;20041;-75
2021/04/07 03:11:12;;;;;;;6.60;1.52;;;3.50;99.90;;;;;;5015256;28;20029;-75
2021/04/07 03:13:50;;;;;;;6.68;1.80;;;3.50;99.90;;;;;;5014637;28;20029;-75
2021/04/07 03:16:15;;;;;;;2.47;1.38;;;3.50;99.90;;;;;;5021004;28;20033;-75
2021/04/07 03:18:41;;;;;;;7.35;1.73;;;3.50;99.90;;;;;;5020137;28;20160;-75
2021/04/07 03:21:06;;;;;;;8.30;2.13;;;3.50;99.90;;;;;;5019889;28;20029;-75
2021/04/07 03:23:34;;;;;;;6.20;1.80;;;3.50;99.90;;;;;;5018629;28;20040;-75
2021/04/07 03:25:59;;;;;;;6.90;1.90;;;3.40;99.90;;;;;;5018903;28;20611;-75
2021/04/07 03:28:25;;;;;;;4.40;2.03;;;3.50;99.90;;;;;;5014761;28;20175;-75
2021/04/07 03:30:51;;;;;;;4.57;1.83;;;3.50;99.90;;;;;;5019471;28;20148;-75
2021/04/07 03:33:29;;;;;;;3.97;1.90;;;3.50;99.90;;;;;;5022161;28;20465;-75
2021/04/07 03:35:55;;;;;;;2.30;1.67;;;3.40;99.90;;;;;;5022297;28;20346;-75
2021/04/07 03:38:21;;;;;;;4.95;2.25;;;3.50;99.90;;;;;;5022299;28;20112;-75
2021/04/07 03:40:47;;;;;;;4.80;2.10;;;3.50;99.90;;;;;;5023759;28;20454;-75
2021/04/07 03:43:16;;;;;;;8.60;2.00;;;3.50;99.90;;;;;;5021387;28;20075;-75
2021/04/07 03:45:46;;;;;;;3.55;1.98;;;3.40;99.90;;;;;;5021335;28;20034;-75
2021/04/07 03:48:14;;;;;;;3.03;1.67;;;3.40;99.90;;;;;;5024052;28;20045;-75
2021/04/07 03:50:41;;;;;;;6.15;2.40;;;3.50;99.90;;;;;;5023969;28;20028;-75
2021/04/07 03:53:08;;;;;;;6.28;2.42;;;3.50;99.90;;;;;;5017980;28;20121;-75
2021/04/07 03:55:34;;;;;;;7.63;2.55;;;3.60;99.90;;;;;;5015295;28;20053;-75
2021/04/07 03:58:03;;;;;;;5.90;2.28;;;3.60;99.90;;;;;;5017946;28;20647;-75
2021/04/07 04:00:29;;;;;;;5.60;2.05;;;3.60;99.90;;;;;;5021305;28;20091;-75
2021/04/07 04:02:55;;;;;;;5.55;2.35;;;3.60;99.90;;;;;;5023942;28;20099;-75
2021/04/07 04:05:21;;;;;;;3.40;1.52;;;3.60;99.90;;;;;;5025330;28;20384;-75
2021/04/07 04:07:46;;;;;;;3.88;1.77;;;3.60;99.90;;;;;;5015593;28;20033;-75
2021/04/07 04:10:13;;;;;;;5.70;2.00;;;3.60;99.90;;;;;;5021037;28;20037;-75
2021/04/07 04:12:39;;;;;;;7.97;2.38;;;3.60;99.90;;;;;;5020847;28;20029;-75
2021/04/07 04:15:09;;;;;;;4.28;2.28;;;3.60;99.90;;;;;;5029726;28;20029;-75
2021/04/07 04:17:35;;;;;;;5.63;1.88;;;3.60;99.90;;;;;;5018030;28;20575;-75
2021/04/07 04:20:00;;;;;;;4.22;1.80;;;3.60;99.90;;;;;;5019037;28;20819;-75
2021/04/07 04:22:26;;;;;;;9.48;2.10;;;3.60;99.90;;;;;;5022808;28;20025;-75
2021/04/07 04:24:51;;;;;;;4.57;2.05;;;3.50;99.90;;;;;;5027366;28;20032;-75
2021/04/07 04:27:17;;;;;;;6.50;2.55;;;3.50;99.90;;;;;;5024521;28;20136;-75
2021/04/07 04:29:42;;;;;;;4.95;1.90;;;3.60;99.90;;;;;;5022076;28;20040;-75
2021/04/07 04:32:08;;;;;;;3.97;2.00;;;3.50;99.90;;;;;;5022358;28;20034;-75
2021/04/07 04:34:33;;;;;;;4.20;2.22;;;3.60;99.90;;;;;;5020436;28;20493;-75
2021/04/07 04:36:59;;;;;;;6.57;1.80;;;3.60;99.90;;;;;;5027277;28;20590;-76
2021/04/07 04:39:24;;;;;;;4.45;2.28;;;3.60;99.90;;;;;;5018567;28;20044;-75
2021/04/07 04:41:50;;;;;;;5.28;2.47;;;3.60;99.90;;;;;;5016296;28;20030;-75
2021/04/07 04:44:15;;;;;;;7.90;2.05;;;3.60;99.90;;;;;;5015990;28;20068;-75
2021/04/07 04:46:41;;;;;;;4.90;2.20;;;3.60;99.90;;;;;;5016829;28;20044;-75
2021/04/07 04:49:06;;;;;;;5.82;2.20;;;3.60;99.90;;;;;;5016034;28;20131;-75
2021/04/07 04:51:32;;;;;;;8.35;2.25;;;3.60;99.90;;;;;;5021532;28;20029;-75
2021/04/07 04:53:57;;;;;;;9.95;2.72;;;3.60;99.90;;;;;;5023903;28;20033;-75
2021/04/07 04:56:23;;;;;;;4.53;2.42;;;3.60;99.90;;;;;;5020124;28;20025;-75
2021/04/07 04:58:48;;;;;;;4.72;1.92;;;3.60;99.90;;;;;;5021514;28;20026;-75
2021/04/07 05:01:14;;;;;;;8.18;2.22;;;3.60;99.90;;;;;;5018538;28;20436;-75
2021/04/07 05:03:39;;;;;;;3.35;2.20;;;3.60;99.90;;;;;;5021485;28;20032;-75
2021/04/07 05:06:05;;;;;;;6.20;2.00;;;3.60;99.90;;;;;;5021039;28;20037;-75
2021/04/07 05:08:31;;;;;;;4.63;1.90;;;3.60;99.90;;;;;;5020216;28;20079;-75
2021/04/07 05:10:56;;;;;;;7.22;2.45;;;3.60;99.90;;;;;;5020210;28;20029;-76
2021/04/07 05:13:22;;;;;;;4.63;2.45;;;3.50;99.90;;;;;;5020559;28;20021;-76
2021/04/07 05:15:47;;;;;;;4.93;2.03;;;3.40;99.90;;;;;;5021102;28;20079;-76
2021/04/07 05:18:14;;;;;;;6.63;2.58;;;3.40;99.90;;;;;;5021800;28;20037;-76
2021/04/07 05:20:41;;;;;;;11.13;2.15;;;3.40;99.90;;;;;;5023935;28;20030;-76
2021/04/07 05:23:07;;;;;;;3.20;1.85;;;3.50;99.90;;;;;;5021090;28;20022;-76
2021/04/07 05:25:33;;;;;;;5.40;2.10;;;3.50;99.90;;;;;;5021245;28;21601;-76
2021/04/07 05:28:08;;;;;;;5.50;2.13;;;3.50;99.90;;;;;;5021750;28;20473;-76
2021/04/07 05:33:23;;;;;;;9.63;2.88;;;3.50;99.90;;;;;;5024183;28;20538;-77
2021/04/07 05:35:49;;;;;;;8.35;1.70;;;3.60;99.90;;;;;;5017987;28;20025;-75
2021/04/07 05:38:17;;;;;;;5.03;2.25;;;3.60;99.90;;;;;;5022443;28;20032;-76
2021/04/07 05:40:42;;;;;;;7.82;2.05;;;3.60;99.90;;;;;;5017475;28;20045;-76
2021/04/07 05:43:08;;;;;;;6.85;2.70;;;3.60;99.90;;;;;;5021759;28;20056;-76
2021/04/07 05:45:36;;;;;;;8.20;2.22;;;3.60;99.90;;;;;;5020446;28;20032;-76
2021/04/07 05:48:02;;;;;;;8.30;2.25;;;3.60;99.90;;;;;;5023015;28;20133;-76
2021/04/07 05:50:27;;;;;;;8.27;2.13;;;3.60;99.90;;;;;;5017784;28;20116;-76
2021/04/07 05:52:53;;;;;;;6.18;2.15;;;3.70;99.90;;;;;;5016416;28;20026;-76
2021/04/07 05:55:19;;;;;;;3.78;2.00;;;3.70;99.90;;;;;;5016457;28;20541;-76
2021/04/07 05:58:03;;;;;;;5.35;2.33;;;3.70;99.90;;;;;;5019941;28;20103;-76
2021/04/07 06:00:29;;;;;;;9.23;2.72;;;3.70;99.90;;;;;;5020785;28;20052;-76
2021/04/07 06:02:56;;;;;;;10.25;2.85;;;3.70;99.90;;;;;;5022352;28;20029;-76
2021/04/07 06:05:23;;;;;;;9.95;2.28;;;3.70;99.90;;;;;;5021752;28;20021;-76
2021/04/07 06:07:49;;;;;;;3.90;2.08;;;3.70;99.90;;;;;;5021660;28;20037;-76
2021/04/07 06:10:15;;;;;;;4.68;2.13;;;3.80;99.90;;;;;;5018498;28;20029;-76
2021/04/07 06:12:41;;;;;;;7.05;2.47;;;3.80;99.90;;;;;;5018371;28;20202;-76
2021/04/07 06:15:08;;;;;;;10.60;2.33;;;3.90;99.90;;;;;;5021878;28;20032;-76
2021/04/07 06:17:35;;;;;;;6.45;1.98;;;3.90;99.90;;;;;;5020126;28;20026;-76
2021/04/07 06:20:01;;;;;;;4.88;2.03;;;3.80;99.90;;;;;;5017334;28;20030;-76
2021/04/07 06:22:26;;;;;;;9.07;1.95;;;3.80;99.90;;;;;;5015258;28;20021;-76
2021/04/07 06:24:52;;;;;;;3.08;1.65;;;3.80;99.90;;;;;;5018921;28;20026;-76
2021/04/07 06:27:17;;;;;;;6.47;1.95;;;3.80;99.90;;;;;;5020174;28;20047;-76
2021/04/07 06:29:43;;;;;;;7.30;2.00;;;3.80;99.90;;;;;;5018957;28;20060;-76
2021/04/07 06:32:08;;;;;;;5.47;2.10;;;3.90;99.90;;;;;;5019432;28;20017;-76
2021/04/07 06:34:34;;;;;;;4.90;2.20;;;3.90;99.90;;;;;;5020394;28;20021;-76
2021/04/07 06:36:59;;;;;;;9.63;2.35;;;4.00;99.90;;;;;;5022174;28;20049;-76
2021/04/07 06:39:25;;;;;;;5.38;2.72;;;4.00;99.90;;;;;;5020729;28;20079;-76
2021/04/07 06:41:50;;;;;;;5.63;2.47;;;4.10;99.90;;;;;;5019203;28;20030;-75
2021/04/07 06:44:18;;;;;;;6.28;2.65;;;4.10;99.90;;;;;;5016432;28;20544;-76
2021/04/07 06:46:44;;;;;;;5.22;2.30;;;4.10;99.90;;;;;;5021709;28;20442;-76
2021/04/07 06:49:12;;;;;;;5.90;2.20;;;4.10;99.90;;;;;;5013327;28;20124;-76
2021/04/07 06:51:39;;;;;;;10.63;2.45;;;4.10;99.90;;;;;;5018291;28;20569;-76
2021/04/07 06:54:05;;;;;;;6.82;1.85;;;4.00;99.90;;;;;;5011152;28;20034;-76
2021/04/07 06:56:32;;;;;;;6.43;2.38;;;4.00;99.90;;;;;;5020010;28;20022;-76
2021/04/07 06:58:58;;;;;;;9.05;2.50;;;4.10;99.90;;;;;;5020551;28;20112;-76
2021/04/07 07:01:24;;;;;;;5.53;1.90;;;4.10;99.90;;;;;;5017596;28;20132;-76
2021/04/07 07:03:49;;;;;;;6.30;2.13;;;4.10;99.90;;;;;;5015144;28;20033;-76
2021/04/07 07:06:15;;;;;;;5.28;2.00;;;4.20;99.90;;;;;;5018147;28;20038;-76
2021/04/07 07:08:58;;;;;;;5.63;2.20;;;4.30;99.90;;;;;;5021216;28;20037;-76
2021/04/07 07:11:27;;;;;;;12.02;2.28;;;4.30;99.90;;;;;;5027111;28;20025;-75
2021/04/07 07:13:53;;;;;;;9.02;2.60;;;4.30;99.90;;;;;;5025063;28;20711;-76
2021/04/07 07:16:28;;;;;;;6.50;2.50;;;4.20;99.90;;;;;;5023318;28;20026;-76
2021/04/07 07:18:53;;;;;;;6.40;2.97;;;4.10;99.90;;;;;;5024665;28;20660;-76
2021/04/07 07:21:21;;;;;;;8.52;2.63;;;4.10;99.90;;;;;;5017937;28;20132;-76
2021/04/07 07:23:48;;;;;;;5.57;2.78;;;4.10;99.90;;;;;;5026142;28;20104;-76
2021/04/07 07:26:15;;;;;;;4.70;2.40;;;4.10;99.90;;;;;;5021030;28;20037;-76
2021/04/07 07:28:50;;;;;;;4.75;2.53;;;4.20;99.90;;;;;;5022775;28;20041;-76
2021/04/07 07:31:25;;;;;;;8.07;2.50;;;4.20;99.90;;;;;;5025339;28;20048;-76
2021/04/07 07:34:03;;;;;;;8.73;2.35;;;4.30;99.90;;;;;;5026123;28;20040;-76
2021/04/07 07:36:33;;;;;;;5.43;2.40;;;4.30;99.90;;;;;;5018543;28;20080;-76
2021/04/07 07:38:59;;;;;;;7.75;2.67;;;4.30;99.90;;;;;;5017041;28;20435;-76
2021/04/07 07:41:31;;;;;;;6.55;2.35;;;4.30;99.90;;;;;;5026664;28;20033;-76
2021/04/07 07:43:57;;;;;;;6.53;2.50;;;4.30;99.90;;;;;;5026567;28;20087;-76
2021/04/07 07:46:28;;;;;;;6.30;2.75;;;4.40;99.90;;;;;;5021761;28;20476;-76
2021/04/07 07:48:55;;;;;;;9.27;3.40;;;4.40;99.90;;;;;;5027334;28;20048;-76
2021/04/07 07:51:23;;;;;;;11.68;3.25;;;4.50;99.90;;;;;;5019246;28;20502;-75
2021/04/07 07:53:50;;;;;;;5.70;2.40;;;4.60;99.90;;;;;;5023874;28;20021;-76
2021/04/07 07:56:18;;;;;;;7.00;2.40;;;4.70;99.90;;;;;;5016470;28;20036;-76
2021/04/07 07:58:47;;;;;;;9.40;2.38;;;4.90;99.90;;;;;;5026003;28;20493;-76
2021/04/07 08:01:14;;;;;;;6.57;2.80;;;4.90;99.90;;;;;;5018868;28;20033;-76
2021/04/07 08:03:42;;;;;;;8.75;2.60;;;4.80;99.90;;;;;;5024140;28;20045;-76
2021/04/07 08:06:08;;;;;;;6.70;2.25;;;4.70;99.90;;;;;;5020045;28;20044;-76
2021/04/07 08:08:33;;;;;;;6.00;2.33;;;4.70;99.90;;;;;;5020294;28;20029;-76
2021/04/07 08:11:03;;;;;;;6.20;2.40;;;4.80;99.90;;;;;;5020750;28;20111;-76
2021/04/07 08:13:40;;;;;;;6.53;2.30;;;4.90;99.90;;;;;;5019499;28;20448;-76
2021/04/07 08:16:06;;;;;;;7.65;2.20;;;4.90;99.90;;;;;;5027001;28;20057;-77
2021/04/07 08:18:33;;;;;;;8.98;2.20;;;5.00;99.90;;;;;;5023358;28;20297;-76
2021/04/07 08:21:00;;;;;;;12.40;2.38;;;5.10;99.90;;;;;;5031588;28;20030;-74
2021/04/07 08:23:28;;;;;;;6.40;1.95;;;5.20;99.90;;;;;;5022425;28;20021;-73
2021/04/07 08:26:01;;;;;;;9.63;2.45;;;5.30;99.90;;;;;;5022045;28;20441;-75
2021/04/07 08:28:28;;;;;;;3.30;1.85;;;5.40;99.90;;;;;;5019742;28;20431;-76
2021/04/07 08:30:53;;;;;;;12.82;2.25;;;5.40;99.00;;;;;;5019809;28;20485;-75
2021/04/07 08:33:23;;;;;;;11.48;3.17;;;5.50;99.30;;;;;;5020202;28;20025;-75
2021/04/07 08:35:52;;;;;;;5.38;1.63;;;5.40;98.20;;;;;;5025083;28;20022;-73
2021/04/07 08:38:30;;;;;;;8.65;2.65;;;5.50;98.10;;;;;;5021608;28;20519;-73
2021/04/07 08:41:11;;;;;;;8.90;1.95;;;5.50;98.30;;;;;;5023255;28;20030;-73
2021/04/07 08:43:37;;;;;;;9.00;2.05;;;5.50;98.40;;;;;;5022741;28;20100;-73
2021/04/07 08:46:20;;;;;;;8.77;2.00;;;5.60;97.30;;;;;;5021562;28;20408;-73
2021/04/07 08:48:45;;;;;;;9.65;2.00;;;5.70;96.20;;;;;;5022196;28;20485;-74
2021/04/07 08:51:14;;;;;;;7.00;1.98;;;5.80;95.30;;;;;;5017576;28;20886;-74
2021/04/07 08:53:42;;;;;;;8.13;1.30;;;5.80;94.90;;;;;;5021034;28;20022;-73
2021/04/07 08:56:10;;;;;;;6.15;1.90;;;5.80;94.80;;;;;;5018866;28;20029;-73
2021/04/07 08:58:54;;;;;;;5.07;2.00;;;5.70;95.00;;;;;;5025646;28;20113;-73
2021/04/07 09:01:23;;;;;;;3.58;1.65;;;5.80;94.40;;;;;;5021164;28;20667;-73
2021/04/07 09:03:49;;;;;;;9.02;1.88;;;5.90;94.20;;;;;;5022181;28;20040;-73
2021/04/07 09:06:15;;;;;;;10.30;2.15;;;5.90;93.60;;;;;;5019694;28;20037;-73
2021/04/07 09:08:52;;;;;;;4.00;1.50;;;6.00;93.40;;;;;;5022584;28;20041;-73
2021/04/07 09:11:27;;;;;;;6.47;1.75;;;5.90;92.50;;;;;;5019285;28;20032;-73
2021/04/07 09:13:58;;;;;;;5.65;1.88;;;5.80;93.20;;;;;;5024820;28;20520;-74
2021/04/07 09:16:32;;;;;;;6.30;1.55;;;5.70;92.30;;;;;;5022936;28;20034;-73
2021/04/07 09:19:18;;;;;;;5.63;1.70;;;5.80;91.80;;;;;;5026331;28;20033;-72
2021/04/07 09:22:07;;;;;;;5.45;1.48;;;5.90;92.70;;;;;;5024078;28;20799;-73
2021/04/07 09:24:39;;;;;;;5.18;1.35;;;6.30;91.00;;;;;;5026946;28;20033;-71
2021/04/07 09:27:05;;;;;;;9.25;1.70;;;6.40;88.00;;;;;;5026475;28;20408;-70
2021/04/07 09:29:30;;;;;;;4.47;1.67;;;6.50;88.10;;;;;;5018181;28;20036;-69
2021/04/07 09:31:56;;;;;;;9.15;1.63;;;6.60;86.20;;;;;;5017833;28;20105;-69
2021/04/07 09:34:22;;;;;;;7.03;1.52;;;6.60;86.50;;;;;;5016022;28;20550;-69
2021/04/07 09:36:49;;;;;;;5.95;1.30;;;6.70;86.30;;;;;;5024398;28;20029;-70
2021/04/07 09:39:18;;;;;;;8.00;1.58;;;6.60;84.80;;;;;;5018556;28;20397;-69
2021/04/07 09:41:44;;;;;;;9.55;1.40;;;6.80;84.80;;;;;;5022132;28;20423;-69
2021/04/07 09:44:12;;;;;;;6.20;1.70;;;6.90;81.40;;;;;;5021776;28;20053;-69
2021/04/07 09:46:39;;;;;;;7.63;2.50;;;7.10;83.50;;;;;;5020646;28;20972;-71
2021/04/07 09:49:07;;;;;;;4.20;1.40;;;7.20;80.50;;;;;;5021877;28;20037;-70
2021/04/07 09:51:41;;;;;;;4.97;1.67;;;7.40;79.70;;;;;;5016219;28;20033;-70
2021/04/07 09:54:22;;;;;;;4.32;1.35;;;7.50;78.20;;;;;;5019472;28;20146;-69
2021/04/07 09:56:59;;;;;;;3.03;1.40;;;7.40;77.20;;;;;;5021729;28;20116;-70
2021/04/07 09:59:48;;;;;;;3.05;1.35;;;7.40;76.70;;;;;;5018650;28;20500;-72
2021/04/07 10:02:23;;;;;;;6.85;1.88;;;7.40;74.60;;;;;;5017925;28;20035;-71
2021/04/07 10:04:49;;;;;;;2.83;1.45;;;7.40;76.50;;;;;;5020966;28;20021;-70
2021/04/07 10:07:22;;;;;;;3.03;1.17;;;7.60;74.00;;;;;;5021110;28;20037;-70
2021/04/07 10:09:50;;;;;;;4.80;1.50;;;7.50;72.60;;;;;;5016499;28;20098;-72
2021/04/07 10:12:18;;;;;;;2.85;1.30;;;7.50;72.10;;;;;;5017186;28;20029;-70
2021/04/07 10:14:50;;;;;;;4.80;1.40;;;7.40;70.00;;;;;;5016433;28;20026;-69
2021/04/07 10:17:18;;;;;;;2.47;1.27;;;7.40;71.40;;;;;;5021072;28;20117;-70
2021/04/07 10:19:44;;;;;;;4.07;1.40;;;7.60;71.90;;;;;;5018007;28;20034;-73
2021/04/07 10:22:15;;;;;;;4.30;1.85;;;7.50;69.20;;;;;;5019679;28;20125;-70
2021/04/07 10:24:42;;;;;;;2.38;1.40;;;7.40;69.10;;;;;;5010321;28;20423;-71
2021/04/07 10:27:08;;;;;;;3.05;1.10;;;7.40;69.80;;;;;;5016923;28;20064;-70
2021/04/07 10:29:34;;;;;;;3.40;1.20;;;7.60;68.80;;;;;;5020597;28;20112;-68
2021/04/07 10:32:00;;;;;;;4.15;1.10;;;7.80;67.90;;;;;;5017946;28;20538;-70
2021/04/07 10:34:33;;;;;;;5.35;1.73;;;7.80;67.60;;;;;;5014223;28;20455;-70
2021/04/07 10:37:00;;;;;;;5.90;1.73;;;7.80;67.50;;;;;;5016912;28;20083;-69
2021/04/07 10:39:41;;;;;;;2.65;1.20;;;7.90;68.20;;;;;;5013080;28;20037;-70
2021/04/07 10:42:16;;;;;;;4.45;1.75;;;8.10;67.60;;;;;;5011763;28;20063;-69
2021/04/07 10:44:42;;;;;;;5.03;1.70;;;8.10;66.30;;;;;;5019520;28;20035;-69
2021/04/07 10:47:15;;;;;;;6.57;1.33;;;8.20;65.80;;;;;;5010203;28;20021;-69
2021/04/07 10:49:56;;;;;;;1.50;1.13;;;8.50;66.60;;;;;;5014890;28;20052;-70
2021/04/07 10:52:37;;;;;;;6.53;1.60;;;8.50;64.70;;;;;;5016780;28;20645;-69
2021/04/07 10:55:10;;;;;;;6.07;1.35;;;8.50;65.30;;;;;;5021327;28;20105;-72
2021/04/07 10:57:38;;;;;;;1.67;1.08;;;8.30;63.10;;;;;;5017373;28;20044;-70
2021/04/07 11:00:11;;;;;;;2.30;1.33;;;8.20;64.60;;;;;;5016201;28;20029;-72
2021/04/07 11:02:45;;;;;;;4.78;2.03;;;7.90;65.60;;;;;;5019067;28;20037;-73
2021/04/07 11:05:16;;;;;;;5.82;1.48;;;7.70;66.80;;;;;;5018086;28;20060;-70
2021/04/07 11:07:42;;;;;;;7.72;2.08;;;7.70;66.20;;;;;;5013208;28;20052;-70
2021/04/07 11:10:13;;;;;;;3.78;1.50;;;7.50;67.30;;;;;;5021934;28;20488;-70
2021/04/07 11:12:41;;;;;;;9.60;1.60;;;7.50;67.40;;;;;;5022910;28;20041;-70
2021/04/07 11:15:13;;;;;;;5.00;1.75;;;7.40;68.80;;;;;;5025663;28;20065;-70
2021/04/07 11:17:49;;;;;;;5.20;1.50;;;7.30;69.00;;;;;;5023108;28;21163;-70
2021/04/07 11:20:18;;;;;;;2.95;1.42;;;7.20;70.00;;;;;;5018118;28;20569;-70
2021/04/07 11:22:44;;;;;;;5.40;1.75;;;7.20;71.30;;;;;;5021738;28;20029;-70
2021/04/07 11:25:10;;;;;;;15.13;1.80;;;7.30;71.00;;;;;;5019131;28;20036;-70
2021/04/07 11:27:36;;;;;;;2.38;1.35;;;7.20;71.30;;;;;;5019861;28;20045;-70
2021/04/07 11:30:05;;;;;;;7.53;1.58;;;7.10;71.70;;;;;;5022240;28;20033;-70
2021/04/07 11:32:34;;;;;;;4.70;1.92;;;7.10;71.90;;;;;;5021255;28;20030;-71
2021/04/07 11:35:09;;;;;;;3.70;1.45;;;7.10;72.00;;;;;;5025000;28;20365;-70
2021/04/07 11:40:09;;;;;;;7.25;1.88;;;7.30;71.40;;;;;;5024945;28;20021;-70
2021/04/07 11:42:55;;;;;;;8.02;1.85;;;7.40;71.80;;;;;;5022167;28;20036;-71
2021/04/07 11:45:21;;;;;;;4.50;1.80;;;7.60;71.60;;;;;;5023224;28;20114;-70
2021/04/07 11:47:46;;;;;;;3.25;1.75;;;7.70;71.30;;;;;;5026679;28;20488;-71
2021/04/07 11:50:12;;;;;;;3.45;2.20;;;7.60;71.90;;;;;;5022326;28;20041;-71
2021/04/07 11:52:37;;;;;;;2.97;1.50;;;7.50;71.50;;;;;;5025477;28;20026;-71
2021/04/07 11:55:03;;;;;;;3.17;1.40;;;7.40;72.30;;;;;;5028516;28;20033;-71
2021/04/07 11:57:29;;;;;;;3.50;1.40;;;7.40;72.80;;;;;;5024483;28;20086;-71
2021/04/07 11:59:55;;;;;;;4.05;1.45;;;7.50;72.20;;;;;;5025306;28;20045;-71
2021/04/07 12:02:21;;;;;;;4.90;1.50;;;7.30;71.60;;;;;;5027519;28;20567;-69
2021/04/07 12:04:47;;;;;;;3.05;1.67;;;7.30;72.80;;;;;;5026864;28;20029;-71
2021/04/07 12:07:14;;;;;;;3.13;1.52;;;7.30;72.80;;;;;;5024891;28;20155;-70
2021/04/07 12:09:45;;;;;;;3.35;1.30;;;7.20;72.10;;;;;;5027378;28;20199;-70
2021/04/07 12:12:11;;;;;;;1.27;0.98;;;7.30;71.60;;;;;;5028812;28;20042;-70
2021/04/07 12:14:37;;;;;;;2.00;1.02;;;7.30;72.40;;;;;;5028754;28;20026;-72
2021/04/07 12:17:02;;;;;;;1.13;0.75;;;7.20;72.30;;;;;;5025529;28;20018;-71
2021/04/07 12:19:28;;;;;;;3.63;1.38;;;7.30;72.70;;;;;;5026145;28;20145;-71
2021/04/07 12:21:54;;;;;;;2.83;1.20;;;7.60;72.60;;;;;;5028247;28;20032;-70
2021/04/07 12:24:20;;;;;;;3.53;1.38;;;7.70;71.60;;;;;;5028930;28;20034;-71
2021/04/07 12:26:45;;;;;;;4.90;1.40;;;7.80;70.40;;;;;;5028365;28;20514;-70
2021/04/07 12:29:11;;;;;;;2.75;1.35;;;7.90;69.70;;;;;;5029069;28;20025;-70
2021/04/07 12:31:36;;;;;;;1.52;0.93;;;7.90;69.40;;;;;;5026259;28;20018;-71
2021/04/07 12:34:02;;;;;;;4.85;1.02;;;7.90;68.90;;;;;;5029132;28;20036;-70
2021/04/07 12:36:30;;;;;;;4.70;1.42;;;7.70;68.20;;;;;;5028303;28;20037;-70
2021/04/07 12:39:01;;;;;;;5.03;1.30;;;7.60;69.60;;;;;;5026638;28;20034;-71
2021/04/07 12:41:35;;;;;;;1.88;1.20;;;7.60;70.00;;;;;;5029317;28;20107;-70
2021/04/07 12:44:01;;;;;;;2.25;1.25;;;7.60;69.40;;;;;;5027982;28;20025;-70
2021/04/07 12:46:27;;;;;;;3.10;1.20;;;7.60;69.90;;;;;;5028346;28;20051;-70
2021/04/07 12:48:52;;;;;;;4.03;1.15;;;7.70;69.00;;;;;;5026920;28;20391;-75
2021/04/07 12:51:20;;;;;;;2.03;0.90;;;7.70;68.90;;;;;;5027958;28;20123;-75
2021/04/07 12:53:47;;;;;;;5.80;1.45;;;7.60;69.00;;;;;;5028216;28;20031;-78
2021/04/07 12:56:16;;;;;;;1.70;0.90;;;7.70;70.00;;;;;;5027576;28;20465;-75
2021/04/07 12:58:43;;;;;;;2.67;1.20;;;7.90;69.80;;;;;;5029365;28;20456;-75
2021/04/07 13:01:08;;;;;;;4.97;1.15;;;8.00;68.80;;;;;;5028604;28;20499;-75
2021/04/07 13:03:34;;;;;;;2.08;1.13;;;8.10;68.50;;;;;;5028855;28;20034;-74
2021/04/07 13:05:59;;;;;;;1.60;1.10;;;8.00;67.40;;;;;;5029047;28;20408;-76
2021/04/07 13:08:25;;;;;;;2.83;1.00;;;8.00;67.90;;;;;;5028194;28;20033;-72